sensor_id;sensor_type;location;lat;lon;timestamp;temperature;humidity
54431;DHT22;40342;52.998;5.862;2022-09-28T00:01:56;8.90;99.90
54431;DHT22;40342;52.998;5.862;2022-09-28T00:04:22;8.90;99.90
54431;DHT22;40342;52.998;5.862;2022-09-28T00:06:47;8.80;99.90
54431;DHT22;40342;52.998;5.862;2022-09-28T00:09:14;8.80;99.90
54431;DHT22;40342;52.998;5.862;2022-09-28T00:11:40;8.80;99.90
54431;DHT22;40342;52.998;5.862;2022-09-28T00:14:06;8.80;99.90
54431;DHT22;40342;52.998;5.862;2022-09-28T00:16:34;8.80;99.90
54431;DHT22;40342;52.998;5.862;2022-09-28T00:19:02;8.80;99.90
54431;DHT22;40342;52.998;5.862;2022-09-28T00:21:30;8.80;99.90
54431;DHT22;40342;52.998;5.862;2022-09-28T00:23:58;8.80;99.90
54431;DHT22;40342;52.998;5.862;2022-09-28T00:26:57;8.70;99.90
54431;DHT22;40342;52.998;5.862;2022-09-28T00:29:25;8.70;99.90
54431;DHT22;40342;52.998;5.862;2022-09-28T00:31:53;8.70;99.90
54431;DHT22;40342;52.998;5.862;2022-09-28T00:34:21;8.70;99.90
54431;DHT22;40342;52.998;5.862;2022-09-28T00:36:47;8.70;99.90
54431;DHT22;40342;52.998;5.862;2022-09-28T00:39:14;8.70;99.90
54431;DHT22;40342;52.998;5.862;2022-09-28T00:41:41;8.70;99.90
54431;DHT22;40342;52.998;5.862;2022-09-28T00:47:00;8.70;99.90
54431;DHT22;40342;52.998;5.862;2022-09-28T00:49:36;8.70;99.90
54431;DHT22;40342;52.998;5.862;2022-09-28T00:52:05;8.70;99.90
54431;DHT22;40342;52.998;5.862;2022-09-28T00:54:33;8.70;99.90
54431;DHT22;40342;52.998;5.862;2022-09-28T00:56:59;8.70;99.90
54431;DHT22;40342;52.998;5.862;2022-09-28T00:59:27;8.70;99.90
54431;DHT22;40342;52.998;5.862;2022-09-28T01:01:53;8.70;99.90
54431;DHT22;40342;52.998;5.862;2022-09-28T01:04:21;8.70;99.90
54431;DHT22;40342;52.998;5.862;2022-09-28T01:06:47;8.70;99.90
54431;DHT22;40342;52.998;5.862;2022-09-28T01:09:13;8.30;99.90
54431;DHT22;40342;52.998;5.862;2022-09-28T01:11:39;8.70;99.90
54431;DHT22;40342;52.998;5.862;2022-09-28T01:14:10;8.70;99.90
54431;DHT22;40342;52.998;5.862;2022-09-28T01:25:23;8.70;99.90
54431;DHT22;40342;52.998;5.862;2022-09-28T01:27:54;8.60;99.90
54431;DHT22;40342;52.998;5.862;2022-09-28T01:30:21;8.70;99.90
54431;DHT22;40342;52.998;5.862;2022-09-28T01:33:02;8.70;99.90
54431;DHT22;40342;52.998;5.862;2022-09-28T01:35:39;8.70;99.90
54431;DHT22;40342;52.998;5.862;2022-09-28T01:38:13;8.90;99.90
54431;DHT22;40342;52.998;5.862;2022-09-28T01:40:42;8.70;99.90
54431;DHT22;40342;52.998;5.862;2022-09-28T01:43:13;8.70;99.90
54431;DHT22;40342;52.998;5.862;2022-09-28T01:46:03;8.60;99.90
54431;DHT22;40342;52.998;5.862;2022-09-28T01:51:07;8.60;99.90
54431;DHT22;40342;52.998;5.862;2022-09-28T01:53:40;8.60;99.90
54431;DHT22;40342;52.998;5.862;2022-09-28T01:56:10;8.60;99.90
54431;DHT22;40342;52.998;5.862;2022-09-28T01:58:41;8.50;99.90
54431;DHT22;40342;52.998;5.862;2022-09-28T02:01:20;8.60;99.90
54431;DHT22;40342;52.998;5.862;2022-09-28T02:06:46;8.50;99.90
54431;DHT22;40342;52.998;5.862;2022-09-28T02:09:22;8.50;99.90
54431;DHT22;40342;52.998;5.862;2022-09-28T02:11:56;8.50;99.90
54431;DHT22;40342;52.998;5.862;2022-09-28T02:14:22;8.50;99.90
54431;DHT22;40342;52.998;5.862;2022-09-28T02:16:51;8.50;99.90
54431;DHT22;40342;52.998;5.862;2022-09-28T02:19:21;8.50;99.90
54431;DHT22;40342;52.998;5.862;2022-09-28T02:21:57;8.50;99.90
54431;DHT22;40342;52.998;5.862;2022-09-28T02:24:32;8.50;99.90
54431;DHT22;40342;52.998;5.862;2022-09-28T02:27:04;8.50;99.90
54431;DHT22;40342;52.998;5.862;2022-09-28T02:29:32;8.50;99.90
54431;DHT22;40342;52.998;5.862;2022-09-28T02:31:57;8.50;99.90
54431;DHT22;40342;52.998;5.862;2022-09-28T02:34:23;8.50;99.90
54431;DHT22;40342;52.998;5.862;2022-09-28T02:36:48;8.50;99.90
54431;DHT22;40342;52.998;5.862;2022-09-28T02:39:15;8.50;99.90
54431;DHT22;40342;52.998;5.862;2022-09-28T02:58:02;8.40;99.90
54431;DHT22;40342;52.998;5.862;2022-09-28T03:00:40;8.40;99.90
54431;DHT22;40342;52.998;5.862;2022-09-28T03:05:40;8.40;99.90
54431;DHT22;40342;52.998;5.862;2022-09-28T03:08:28;8.40;99.90
54431;DHT22;40342;52.998;5.862;2022-09-28T03:10:59;8.40;99.90
54431;DHT22;40342;52.998;5.862;2022-09-28T03:13:27;8.40;99.90
54431;DHT22;40342;52.998;5.862;2022-09-28T03:18:36;8.40;99.90
54431;DHT22;40342;52.998;5.862;2022-09-28T03:21:03;8.40;99.90
54431;DHT22;40342;52.998;5.862;2022-09-28T03:23:29;8.40;99.90
54431;DHT22;40342;52.998;5.862;2022-09-28T03:25:54;8.40;99.90
54431;DHT22;40342;52.998;5.862;2022-09-28T03:28:20;8.40;99.90
54431;DHT22;40342;52.998;5.862;2022-09-28T03:30:46;8.40;99.90
54431;DHT22;40342;52.998;5.862;2022-09-28T03:33:12;8.40;99.90
54431;DHT22;40342;52.998;5.862;2022-09-28T03:35:37;8.30;99.90
54431;DHT22;40342;52.998;5.862;2022-09-28T03:38:03;8.30;99.90
54431;DHT22;40342;52.998;5.862;2022-09-28T03:40:28;8.40;99.90
54431;DHT22;40342;52.998;5.862;2022-09-28T03:42:54;8.40;99.90
54431;DHT22;40342;52.998;5.862;2022-09-28T03:45:20;8.30;99.90
54431;DHT22;40342;52.998;5.862;2022-09-28T03:47:46;8.30;99.90
54431;DHT22;40342;52.998;5.862;2022-09-28T03:50:12;8.30;99.90
54431;DHT22;40342;52.998;5.862;2022-09-28T03:52:38;8.60;99.90
54431;DHT22;40342;52.998;5.862;2022-09-28T03:55:03;8.30;99.90
54431;DHT22;40342;52.998;5.862;2022-09-28T03:57:29;8.30;99.90
54431;DHT22;40342;52.998;5.862;2022-09-28T03:59:55;8.30;99.90
54431;DHT22;40342;52.998;5.862;2022-09-28T04:02:20;8.30;99.90
54431;DHT22;40342;52.998;5.862;2022-09-28T04:04:46;8.30;99.90
54431;DHT22;40342;52.998;5.862;2022-09-28T04:07:11;8.30;99.90
54431;DHT22;40342;52.998;5.862;2022-09-28T04:09:37;8.30;99.90
54431;DHT22;40342;52.998;5.862;2022-09-28T04:12:03;8.40;99.90
54431;DHT22;40342;52.998;5.862;2022-09-28T04:14:28;8.30;99.90
54431;DHT22;40342;52.998;5.862;2022-09-28T04:16:54;8.40;99.90
54431;DHT22;40342;52.998;5.862;2022-09-28T04:19:20;8.40;99.90
54431;DHT22;40342;52.998;5.862;2022-09-28T04:21:49;8.30;99.90
54431;DHT22;40342;52.998;5.862;2022-09-28T04:24:16;8.30;99.90
54431;DHT22;40342;52.998;5.862;2022-09-28T04:26:42;8.40;99.90
54431;DHT22;40342;52.998;5.862;2022-09-28T04:29:09;8.40;99.90
54431;DHT22;40342;52.998;5.862;2022-09-28T04:31:48;8.40;99.90
54431;DHT22;40342;52.998;5.862;2022-09-28T04:34:19;8.40;99.90
54431;DHT22;40342;52.998;5.862;2022-09-28T04:36:46;8.40;99.90
54431;DHT22;40342;52.998;5.862;2022-09-28T04:39:13;8.40;99.90
54431;DHT22;40342;52.998;5.862;2022-09-28T04:41:40;8.40;99.90
54431;DHT22;40342;52.998;5.862;2022-09-28T04:44:06;8.40;99.90
54431;DHT22;40342;52.998;5.862;2022-09-28T04:46:32;8.30;99.90
54431;DHT22;40342;52.998;5.862;2022-09-28T04:48:58;8.30;99.90
54431;DHT22;40342;52.998;5.862;2022-09-28T04:51:24;8.30;99.90
54431;DHT22;40342;52.998;5.862;2022-09-28T04:53:50;8.40;99.90
54431;DHT22;40342;52.998;5.862;2022-09-28T04:56:16;8.40;99.90
54431;DHT22;40342;52.998;5.862;2022-09-28T04:58:42;8.40;99.90
54431;DHT22;40342;52.998;5.862;2022-09-28T05:01:14;8.40;99.90
54431;DHT22;40342;52.998;5.862;2022-09-28T05:03:40;8.40;99.90
54431;DHT22;40342;52.998;5.862;2022-09-28T05:06:06;8.40;99.90
54431;DHT22;40342;52.998;5.862;2022-09-28T05:08:33;8.40;99.90
54431;DHT22;40342;52.998;5.862;2022-09-28T05:11:01;8.40;99.90
54431;DHT22;40342;52.998;5.862;2022-09-28T05:13:28;8.40;99.90
54431;DHT22;40342;52.998;5.862;2022-09-28T05:15:55;8.40;99.90
54431;DHT22;40342;52.998;5.862;2022-09-28T05:18:22;8.40;99.90
54431;DHT22;40342;52.998;5.862;2022-09-28T05:20:48;8.40;99.90
54431;DHT22;40342;52.998;5.862;2022-09-28T05:23:13;8.40;99.90
54431;DHT22;40342;52.998;5.862;2022-09-28T05:25:40;8.40;99.90
54431;DHT22;40342;52.998;5.862;2022-09-28T05:28:06;8.30;99.90
54431;DHT22;40342;52.998;5.862;2022-09-28T05:30:33;8.30;99.90
54431;DHT22;40342;52.998;5.862;2022-09-28T05:32:59;8.30;99.90
54431;DHT22;40342;52.998;5.862;2022-09-28T05:35:24;8.30;99.90
54431;DHT22;40342;52.998;5.862;2022-09-28T05:37:50;8.30;99.90
54431;DHT22;40342;52.998;5.862;2022-09-28T05:40:16;8.30;99.90
54431;DHT22;40342;52.998;5.862;2022-09-28T05:42:41;8.30;99.90
54431;DHT22;40342;52.998;5.862;2022-09-28T05:45:08;8.30;99.90
54431;DHT22;40342;52.998;5.862;2022-09-28T05:47:41;8.30;99.90
54431;DHT22;40342;52.998;5.862;2022-09-28T05:50:09;8.30;99.90
54431;DHT22;40342;52.998;5.862;2022-09-28T05:52:39;8.30;99.90
54431;DHT22;40342;52.998;5.862;2022-09-28T05:55:05;8.20;99.90
54431;DHT22;40342;52.998;5.862;2022-09-28T05:57:31;8.20;99.90
54431;DHT22;40342;52.998;5.862;2022-09-28T05:59:57;8.20;99.90
54431;DHT22;40342;52.998;5.862;2022-09-28T06:02:23;8.20;99.90
54431;DHT22;40342;52.998;5.862;2022-09-28T06:04:48;8.20;99.90
54431;DHT22;40342;52.998;5.862;2022-09-28T06:07:16;8.10;99.90
54431;DHT22;40342;52.998;5.862;2022-09-28T06:09:42;8.10;99.90
54431;DHT22;40342;52.998;5.862;2022-09-28T06:12:07;8.10;99.90
54431;DHT22;40342;52.998;5.862;2022-09-28T06:14:33;8.20;99.90
54431;DHT22;40342;52.998;5.862;2022-09-28T06:16:59;8.10;99.90
54431;DHT22;40342;52.998;5.862;2022-09-28T06:19:24;8.10;99.90
54431;DHT22;40342;52.998;5.862;2022-09-28T06:21:50;8.10;99.90
54431;DHT22;40342;52.998;5.862;2022-09-28T06:24:17;8.00;99.90
54431;DHT22;40342;52.998;5.862;2022-09-28T06:26:42;8.00;99.90
54431;DHT22;40342;52.998;5.862;2022-09-28T06:29:08;8.00;99.90
54431;DHT22;40342;52.998;5.862;2022-09-28T06:31:33;8.00;99.90
54431;DHT22;40342;52.998;5.862;2022-09-28T06:33:59;8.00;99.90
54431;DHT22;40342;52.998;5.862;2022-09-28T06:36:27;8.10;99.90
54431;DHT22;40342;52.998;5.862;2022-09-28T06:38:53;8.10;99.90
54431;DHT22;40342;52.998;5.862;2022-09-28T06:41:19;8.10;99.90
54431;DHT22;40342;52.998;5.862;2022-09-28T06:43:46;8.10;99.90
54431;DHT22;40342;52.998;5.862;2022-09-28T06:46:12;8.10;99.90
54431;DHT22;40342;52.998;5.862;2022-09-28T06:48:38;8.10;99.90
54431;DHT22;40342;52.998;5.862;2022-09-28T06:51:04;8.10;99.90
54431;DHT22;40342;52.998;5.862;2022-09-28T06:53:30;8.10;99.90
54431;DHT22;40342;52.998;5.862;2022-09-28T06:55:56;8.10;99.90
54431;DHT22;40342;52.998;5.862;2022-09-28T06:58:22;8.10;99.90
54431;DHT22;40342;52.998;5.862;2022-09-28T07:00:50;8.10;99.90
54431;DHT22;40342;52.998;5.862;2022-09-28T07:03:20;8.10;99.90
54431;DHT22;40342;52.998;5.862;2022-09-28T07:05:48;8.20;99.90
54431;DHT22;40342;52.998;5.862;2022-09-28T07:08:15;8.20;99.90
54431;DHT22;40342;52.998;5.862;2022-09-28T07:10:42;8.30;99.90
54431;DHT22;40342;52.998;5.862;2022-09-28T07:13:09;8.30;99.90
54431;DHT22;40342;52.998;5.862;2022-09-28T07:15:34;8.40;99.90
54431;DHT22;40342;52.998;5.862;2022-09-28T07:18:03;8.40;99.90
54431;DHT22;40342;52.998;5.862;2022-09-28T07:20:30;8.50;99.90
54431;DHT22;40342;52.998;5.862;2022-09-28T07:22:58;8.50;99.90
54431;DHT22;40342;52.998;5.862;2022-09-28T07:25:25;8.60;99.90
54431;DHT22;40342;52.998;5.862;2022-09-28T07:27:54;8.60;99.90
54431;DHT22;40342;52.998;5.862;2022-09-28T07:30:22;8.60;99.90
54431;DHT22;40342;52.998;5.862;2022-09-28T07:32:47;8.70;99.90
54431;DHT22;40342;52.998;5.862;2022-09-28T07:35:14;8.80;99.90
54431;DHT22;40342;52.998;5.862;2022-09-28T07:37:39;8.80;99.90
54431;DHT22;40342;52.998;5.862;2022-09-28T07:40:07;8.90;99.90
54431;DHT22;40342;52.998;5.862;2022-09-28T07:42:51;8.90;99.90
54431;DHT22;40342;52.998;5.862;2022-09-28T07:45:17;8.90;99.90
54431;DHT22;40342;52.998;5.862;2022-09-28T07:47:45;9.00;99.90
54431;DHT22;40342;52.998;5.862;2022-09-28T07:50:11;9.00;99.90
54431;DHT22;40342;52.998;5.862;2022-09-28T07:52:37;9.10;99.90
54431;DHT22;40342;52.998;5.862;2022-09-28T07:55:03;9.10;99.90
54431;DHT22;40342;52.998;5.862;2022-09-28T07:57:29;9.20;99.90
54431;DHT22;40342;52.998;5.862;2022-09-28T07:59:58;9.20;99.90
54431;DHT22;40342;52.998;5.862;2022-09-28T08:02:24;9.20;99.90
54431;DHT22;40342;52.998;5.862;2022-09-28T08:04:50;9.30;99.90
54431;DHT22;40342;52.998;5.862;2022-09-28T08:07:17;9.40;99.90
54431;DHT22;40342;52.998;5.862;2022-09-28T08:09:47;9.40;99.90
54431;DHT22;40342;52.998;5.862;2022-09-28T08:12:13;9.50;99.90
54431;DHT22;40342;52.998;5.862;2022-09-28T08:14:38;9.50;99.90
54431;DHT22;40342;52.998;5.862;2022-09-28T08:17:05;9.60;99.90
54431;DHT22;40342;52.998;5.862;2022-09-28T08:19:31;9.60;99.90
54431;DHT22;40342;52.998;5.862;2022-09-28T08:22:19;9.70;99.90
54431;DHT22;40342;52.998;5.862;2022-09-28T08:24:45;9.70;99.90
54431;DHT22;40342;52.998;5.862;2022-09-28T08:27:13;9.80;99.90
54431;DHT22;40342;52.998;5.862;2022-09-28T08:29:38;9.80;99.90
54431;DHT22;40342;52.998;5.862;2022-09-28T08:32:05;9.90;99.90
54431;DHT22;40342;52.998;5.862;2022-09-28T08:34:37;9.90;99.90
54431;DHT22;40342;52.998;5.862;2022-09-28T08:37:03;10.00;99.90
54431;DHT22;40342;52.998;5.862;2022-09-28T08:39:29;10.10;99.90
54431;DHT22;40342;52.998;5.862;2022-09-28T08:44:37;10.30;99.90
54431;DHT22;40342;52.998;5.862;2022-09-28T08:47:50;10.40;99.90
54431;DHT22;40342;52.998;5.862;2022-09-28T08:50:17;10.50;99.90
54431;DHT22;40342;52.998;5.862;2022-09-28T08:52:47;10.60;99.90
54431;DHT22;40342;52.998;5.862;2022-09-28T08:55:25;10.60;99.90
54431;DHT22;40342;52.998;5.862;2022-09-28T09:00:48;10.80;99.90
54431;DHT22;40342;52.998;5.862;2022-09-28T09:03:16;10.90;99.90
54431;DHT22;40342;52.998;5.862;2022-09-28T09:06:00;11.00;99.90
54431;DHT22;40342;52.998;5.862;2022-09-28T09:08:51;11.10;99.90
54431;DHT22;40342;52.998;5.862;2022-09-28T09:17:21;11.30;99.90
54431;DHT22;40342;52.998;5.862;2022-09-28T09:20:26;11.40;99.90
54431;DHT22;40342;52.998;5.862;2022-09-28T09:22:58;11.50;99.90
54431;DHT22;40342;52.998;5.862;2022-09-28T09:31:04;12.20;99.90
54431;DHT22;40342;52.998;5.862;2022-09-28T09:34:02;12.60;99.90
54431;DHT22;40342;52.998;5.862;2022-09-28T09:42:31;12.90;99.90
54431;DHT22;40342;52.998;5.862;2022-09-28T09:45:24;12.90;99.90
54431;DHT22;40342;52.998;5.862;2022-09-28T09:47:59;13.00;99.90
54431;DHT22;40342;52.998;5.862;2022-09-28T09:50:31;13.10;99.90
54431;DHT22;40342;52.998;5.862;2022-09-28T09:53:35;13.10;99.90
54431;DHT22;40342;52.998;5.862;2022-09-28T09:56:25;13.00;99.90
54431;DHT22;40342;52.998;5.862;2022-09-28T09:59:01;12.90;99.90
54431;DHT22;40342;52.998;5.862;2022-09-28T10:01:38;12.90;99.90
54431;DHT22;40342;52.998;5.862;2022-09-28T10:04:13;13.10;99.90
54431;DHT22;40342;52.998;5.862;2022-09-28T10:06:42;13.30;99.90
54431;DHT22;40342;52.998;5.862;2022-09-28T10:09:26;13.50;99.90
54431;DHT22;40342;52.998;5.862;2022-09-28T10:11:54;13.90;99.90
54431;DHT22;40342;52.998;5.862;2022-09-28T10:14:22;14.00;99.90
54431;DHT22;40342;52.998;5.862;2022-09-28T10:16:50;14.20;99.90
54431;DHT22;40342;52.998;5.862;2022-09-28T10:19:19;14.40;99.90
54431;DHT22;40342;52.998;5.862;2022-09-28T10:21:48;14.60;99.90
54431;DHT22;40342;52.998;5.862;2022-09-28T10:27:02;14.90;99.90
54431;DHT22;40342;52.998;5.862;2022-09-28T10:29:36;15.00;99.90
54431;DHT22;40342;52.998;5.862;2022-09-28T10:32:20;14.90;99.90
54431;DHT22;40342;52.998;5.862;2022-09-28T10:34:46;15.00;99.90
54431;DHT22;40342;52.998;5.862;2022-09-28T10:37:14;15.10;99.90
54431;DHT22;40342;52.998;5.862;2022-09-28T10:39:48;15.20;99.90
54431;DHT22;40342;52.998;5.862;2022-09-28T10:42:22;15.30;99.90
54431;DHT22;40342;52.998;5.862;2022-09-28T10:44:59;15.50;99.90
54431;DHT22;40342;52.998;5.862;2022-09-28T10:47:28;15.50;99.90
54431;DHT22;40342;52.998;5.862;2022-09-28T10:49:55;15.60;99.90
54431;DHT22;40342;52.998;5.862;2022-09-28T10:54:56;15.70;99.90
54431;DHT22;40342;52.998;5.862;2022-09-28T10:57:33;15.80;99.90
54431;DHT22;40342;52.998;5.862;2022-09-28T10:59:59;15.90;99.90
54431;DHT22;40342;52.998;5.862;2022-09-28T11:02:29;16.10;99.90
54431;DHT22;40342;52.998;5.862;2022-09-28T11:05:00;16.20;99.90
54431;DHT22;40342;52.998;5.862;2022-09-28T11:07:31;16.30;99.90
54431;DHT22;40342;52.998;5.862;2022-09-28T11:13:59;16.10;99.90
54431;DHT22;40342;52.998;5.862;2022-09-28T11:16:43;15.80;99.90
54431;DHT22;40342;52.998;5.862;2022-09-28T11:21:43;15.90;99.90
54431;DHT22;40342;52.998;5.862;2022-09-28T11:24:20;16.00;99.90
54431;DHT22;40342;52.998;5.862;2022-09-28T11:26:51;16.20;99.90
54431;DHT22;40342;52.998;5.862;2022-09-28T11:31:48;16.50;99.90
54431;DHT22;40342;52.998;5.862;2022-09-28T11:34:23;16.60;99.90
54431;DHT22;40342;52.998;5.862;2022-09-28T11:42:41;16.60;99.90
54431;DHT22;40342;52.998;5.862;2022-09-28T11:50:37;16.90;99.90
54431;DHT22;40342;52.998;5.862;2022-09-28T11:53:57;16.90;99.90
54431;DHT22;40342;52.998;5.862;2022-09-28T11:58:49;17.10;99.90
54431;DHT22;40342;52.998;5.862;2022-09-28T12:01:32;17.50;99.90
54431;DHT22;40342;52.998;5.862;2022-09-28T12:04:15;17.10;99.90
54431;DHT22;40342;52.998;5.862;2022-09-28T12:06:48;17.00;99.90
54431;DHT22;40342;52.998;5.862;2022-09-28T12:09:21;17.00;99.90
54431;DHT22;40342;52.998;5.862;2022-09-28T12:11:53;17.20;99.90
54431;DHT22;40342;52.998;5.862;2022-09-28T12:14:25;17.30;99.90
54431;DHT22;40342;52.998;5.862;2022-09-28T12:17:00;17.40;99.90
54431;DHT22;40342;52.998;5.862;2022-09-28T12:22:25;17.50;99.90
54431;DHT22;40342;52.998;5.862;2022-09-28T12:24:56;17.50;99.90
54431;DHT22;40342;52.998;5.862;2022-09-28T12:30:20;17.80;99.90
54431;DHT22;40342;52.998;5.862;2022-09-28T12:33:07;17.90;99.90
54431;DHT22;40342;52.998;5.862;2022-09-28T12:50:21;17.90;99.90
54431;DHT22;40342;52.998;5.862;2022-09-28T12:53:00;17.70;99.90
54431;DHT22;40342;52.998;5.862;2022-09-28T12:58:25;17.10;99.90
54431;DHT22;40342;52.998;5.862;2022-09-28T13:01:04;16.90;99.90
54431;DHT22;40342;52.998;5.862;2022-09-28T13:03:50;16.80;99.90
54431;DHT22;40342;52.998;5.862;2022-09-28T13:06:21;16.90;99.90
54431;DHT22;40342;52.998;5.862;2022-09-28T13:11:33;16.90;99.90
54431;DHT22;40342;52.998;5.862;2022-09-28T13:19:58;16.50;99.90
54431;DHT22;40342;52.998;5.862;2022-09-28T13:22:37;16.20;99.90
54431;DHT22;40342;52.998;5.862;2022-09-28T13:25:12;16.00;99.90
54431;DHT22;40342;52.998;5.862;2022-09-28T13:27:47;15.80;99.90
54431;DHT22;40342;52.998;5.862;2022-09-28T13:30:14;15.60;99.90
54431;DHT22;40342;52.998;5.862;2022-09-28T13:32:44;15.40;99.90
54431;DHT22;40342;52.998;5.862;2022-09-28T13:35:16;15.50;99.90
54431;DHT22;40342;52.998;5.862;2022-09-28T13:37:45;14.90;99.90
54431;DHT22;40342;52.998;5.862;2022-09-28T13:40:12;14.70;99.90
54431;DHT22;40342;52.998;5.862;2022-09-28T14:01:06;13.60;99.90
54431;DHT22;40342;52.998;5.862;2022-09-28T14:06:29;13.30;99.90
54431;DHT22;40342;52.998;5.862;2022-09-28T14:11:59;13.30;99.90
54431;DHT22;40342;52.998;5.862;2022-09-28T14:14:49;12.90;99.90
54431;DHT22;40342;52.998;5.862;2022-09-28T14:20:11;12.70;99.90
54431;DHT22;40342;52.998;5.862;2022-09-28T14:31:54;12.50;99.90
54431;DHT22;40342;52.998;5.862;2022-09-28T14:34:37;12.80;99.90
54431;DHT22;40342;52.998;5.862;2022-09-28T14:37:18;13.10;99.90
54431;DHT22;40342;52.998;5.862;2022-09-28T14:40:17;13.50;99.90
54431;DHT22;40342;52.998;5.862;2022-09-28T14:48:52;14.40;99.90
54431;DHT22;40342;52.998;5.862;2022-09-28T14:56:44;14.80;99.90
54431;DHT22;40342;52.998;5.862;2022-09-28T14:59:17;14.90;99.90
54431;DHT22;40342;52.998;5.862;2022-09-28T15:01:59;14.90;99.90
54431;DHT22;40342;52.998;5.862;2022-09-28T15:04:42;14.90;99.90
54431;DHT22;40342;52.998;5.862;2022-09-28T15:07:19;14.90;99.90
54431;DHT22;40342;52.998;5.862;2022-09-28T15:09:47;14.80;99.90
54431;DHT22;40342;52.998;5.862;2022-09-28T15:12:23;14.80;99.90
54431;DHT22;40342;52.998;5.862;2022-09-28T15:15:00;14.80;99.90
54431;DHT22;40342;52.998;5.862;2022-09-28T15:17:32;14.70;99.90
54431;DHT22;40342;52.998;5.862;2022-09-28T15:22:52;14.60;99.90
54431;DHT22;40342;52.998;5.862;2022-09-28T15:25:22;14.50;99.90
54431;DHT22;40342;52.998;5.862;2022-09-28T15:27:55;14.50;99.90
54431;DHT22;40342;52.998;5.862;2022-09-28T15:30:33;14.40;99.90
54431;DHT22;40342;52.998;5.862;2022-09-28T15:33:00;14.40;99.90
54431;DHT22;40342;52.998;5.862;2022-09-28T15:36:04;14.40;99.90
54431;DHT22;40342;52.998;5.862;2022-09-28T15:38:31;14.40;99.90
54431;DHT22;40342;52.998;5.862;2022-09-28T15:41:02;14.40;99.90
54431;DHT22;40342;52.998;5.862;2022-09-28T15:43:31;14.40;99.90
54431;DHT22;40342;52.998;5.862;2022-09-28T15:51:10;14.20;99.90
54431;DHT22;40342;52.998;5.862;2022-09-28T15:54:03;14.30;99.90
54431;DHT22;40342;52.998;5.862;2022-09-28T15:56:51;14.30;99.90
54431;DHT22;40342;52.998;5.862;2022-09-28T15:59:31;14.40;99.90
54431;DHT22;40342;52.998;5.862;2022-09-28T16:02:18;14.40;99.90
54431;DHT22;40342;52.998;5.862;2022-09-28T16:04:56;14.40;99.90
54431;DHT22;40342;52.998;5.862;2022-09-28T16:07:39;14.30;99.90
54431;DHT22;40342;52.998;5.862;2022-09-28T16:15:37;14.10;99.90
54431;DHT22;40342;52.998;5.862;2022-09-28T16:21:40;14.10;99.90
54431;DHT22;40342;52.998;5.862;2022-09-28T16:24:23;14.00;99.90
54431;DHT22;40342;52.998;5.862;2022-09-28T16:26:59;14.00;99.90
54431;DHT22;40342;52.998;5.862;2022-09-28T16:29:34;13.90;99.90
54431;DHT22;40342;52.998;5.862;2022-09-28T16:37:39;13.70;99.90
54431;DHT22;40342;52.998;5.862;2022-09-28T16:40:07;13.60;99.90
54431;DHT22;40342;52.998;5.862;2022-09-28T16:42:33;13.70;99.90
54431;DHT22;40342;52.998;5.862;2022-09-28T16:44:59;13.60;99.90
54431;DHT22;40342;52.998;5.862;2022-09-28T16:47:26;13.60;99.90
54431;DHT22;40342;52.998;5.862;2022-09-28T16:49:56;13.60;99.90
54431;DHT22;40342;52.998;5.862;2022-09-28T16:52:22;13.70;99.90
54431;DHT22;40342;52.998;5.862;2022-09-28T16:55:09;13.90;99.90
54431;DHT22;40342;52.998;5.862;2022-09-28T16:57:45;14.00;99.90
54431;DHT22;40342;52.998;5.862;2022-09-28T17:00:20;14.10;99.90
54431;DHT22;40342;52.998;5.862;2022-09-28T17:02:48;14.30;99.90
54431;DHT22;40342;52.998;5.862;2022-09-28T17:05:15;14.30;99.90
54431;DHT22;40342;52.998;5.862;2022-09-28T17:07:43;14.30;99.90
54431;DHT22;40342;52.998;5.862;2022-09-28T17:10:25;14.20;99.90
54431;DHT22;40342;52.998;5.862;2022-09-28T17:12:53;14.20;99.90
54431;DHT22;40342;52.998;5.862;2022-09-28T17:15:18;14.00;99.90
54431;DHT22;40342;52.998;5.862;2022-09-28T17:17:45;13.90;99.90
54431;DHT22;40342;52.998;5.862;2022-09-28T17:20:32;13.80;99.90
54431;DHT22;40342;52.998;5.862;2022-09-28T17:22:58;13.70;99.90
54431;DHT22;40342;52.998;5.862;2022-09-28T17:25:25;13.60;99.90
54431;DHT22;40342;52.998;5.862;2022-09-28T17:27:53;13.50;99.90
54431;DHT22;40342;52.998;5.862;2022-09-28T17:30:19;13.40;99.90
54431;DHT22;40342;52.998;5.862;2022-09-28T17:32:45;13.30;99.90
54431;DHT22;40342;52.998;5.862;2022-09-28T17:35:13;13.20;99.90
54431;DHT22;40342;52.998;5.862;2022-09-28T17:37:39;13.10;99.90
54431;DHT22;40342;52.998;5.862;2022-09-28T17:42:46;13.00;99.90
54431;DHT22;40342;52.998;5.862;2022-09-28T17:45:13;12.90;99.90
54431;DHT22;40342;52.998;5.862;2022-09-28T17:47:39;12.80;99.90
54431;DHT22;40342;52.998;5.862;2022-09-28T17:50:20;12.70;99.90
54431;DHT22;40342;52.998;5.862;2022-09-28T17:52:47;12.60;99.90
54431;DHT22;40342;52.998;5.862;2022-09-28T17:55:17;12.50;99.90
54431;DHT22;40342;52.998;5.862;2022-09-28T17:57:44;12.40;99.90
54431;DHT22;40342;52.998;5.862;2022-09-28T18:00:10;12.30;99.90
54431;DHT22;40342;52.998;5.862;2022-09-28T18:02:37;12.20;99.90
54431;DHT22;40342;52.998;5.862;2022-09-28T18:05:03;12.10;99.90
54431;DHT22;40342;52.998;5.862;2022-09-28T18:07:29;12.10;99.90
54431;DHT22;40342;52.998;5.862;2022-09-28T18:09:56;12.10;99.90
54431;DHT22;40342;52.998;5.862;2022-09-28T18:12:22;12.00;99.90
54431;DHT22;40342;52.998;5.862;2022-09-28T18:14:49;11.90;99.90
54431;DHT22;40342;52.998;5.862;2022-09-28T18:17:15;11.80;99.90
54431;DHT22;40342;52.998;5.862;2022-09-28T18:19:41;11.80;99.90
54431;DHT22;40342;52.998;5.862;2022-09-28T18:22:06;11.70;99.90
54431;DHT22;40342;52.998;5.862;2022-09-28T18:24:32;11.60;99.90
54431;DHT22;40342;52.998;5.862;2022-09-28T18:27:00;11.90;99.90
54431;DHT22;40342;52.998;5.862;2022-09-28T18:29:25;11.50;99.90
54431;DHT22;40342;52.998;5.862;2022-09-28T18:31:51;11.40;99.90
54431;DHT22;40342;52.998;5.862;2022-09-28T18:34:16;11.30;99.90
54431;DHT22;40342;52.998;5.862;2022-09-28T18:36:42;11.30;99.90
54431;DHT22;40342;52.998;5.862;2022-09-28T18:39:08;11.30;99.90
54431;DHT22;40342;52.998;5.862;2022-09-28T18:41:33;11.20;99.90
54431;DHT22;40342;52.998;5.862;2022-09-28T18:43:59;11.20;99.90
54431;DHT22;40342;52.998;5.862;2022-09-28T18:46:26;11.20;99.90
54431;DHT22;40342;52.998;5.862;2022-09-28T18:48:53;11.10;99.90
54431;DHT22;40342;52.998;5.862;2022-09-28T18:51:19;11.10;99.90
54431;DHT22;40342;52.998;5.862;2022-09-28T18:53:45;11.10;99.90
54431;DHT22;40342;52.998;5.862;2022-09-28T18:56:13;11.10;99.90
54431;DHT22;40342;52.998;5.862;2022-09-28T18:58:40;11.10;99.90
54431;DHT22;40342;52.998;5.862;2022-09-28T19:01:11;11.10;99.90
54431;DHT22;40342;52.998;5.862;2022-09-28T19:03:37;11.10;99.90
54431;DHT22;40342;52.998;5.862;2022-09-28T19:06:10;11.10;99.90
54431;DHT22;40342;52.998;5.862;2022-09-28T19:08:38;11.00;99.90
54431;DHT22;40342;52.998;5.862;2022-09-28T19:11:09;11.00;99.90
54431;DHT22;40342;52.998;5.862;2022-09-28T19:13:35;11.00;99.90